Time;durP1;ratioP1;P1;durP2;ratioP2;P2;SDS_P1;SDS_P2;PMS_P1;PMS_P2;Temp;Humidity;BMP_temperature;BMP_pressure;BME280_temperature;BME280_humidity;BME280_pressure;Samples;Min_cycle;Max_cycle;Signal;HPM_P1;HPM_P2
2023/03/28 00:02:08;;;;;;;22.38;2.40;;;2.80;99.90;;;;;;4995074;28;20091;-80
2023/03/28 00:04:36;;;;;;;13.48;2.55;;;2.80;99.90;;;;;;5013296;28;20053;-81
2023/03/28 00:07:04;;;;;;;17.23;3.08;;;2.80;99.90;;;;;;5019489;28;20128;-80
2023/03/28 00:09:30;;;;;;;16.63;2.70;;;2.80;99.90;;;;;;5016487;28;20069;-81
2023/03/28 00:11:56;;;;;;;17.70;2.97;;;2.80;99.90;;;;;;5013055;28;20144;-82
2023/03/28 00:14:21;;;;;;;15.10;2.55;;;2.70;99.90;;;;;;5011527;28;20141;-81
2023/03/28 00:16:47;;;;;;;19.08;2.70;;;2.60;99.90;;;;;;5000904;28;20038;-80
2023/03/28 00:19:18;;;;;;;15.63;2.63;;;2.60;99.90;;;;;;5014503;28;20133;-82
2023/03/28 00:21:46;;;;;;;16.23;2.33;;;2.60;99.90;;;;;;5014974;28;20250;-81
2023/03/28 00:24:14;;;;;;;15.95;2.45;;;2.50;99.90;;;;;;5021279;28;20038;-80
2023/03/28 00:26:41;;;;;;;14.93;3.35;;;2.50;99.90;;;;;;5007187;28;20392;-80
2023/03/28 00:29:11;;;;;;;12.82;2.17;;;2.50;99.90;;;;;;5003437;28;20440;-80
2023/03/28 00:31:40;;;;;;;20.63;3.10;;;2.40;99.90;;;;;;5009092;28;20527;-81
2023/03/28 00:34:06;;;;;;;12.55;2.28;;;2.50;99.90;;;;;;4999797;28;20045;-80
2023/03/28 00:36:32;;;;;;;13.23;2.50;;;2.50;99.90;;;;;;5013815;28;20524;-80
2023/03/28 00:39:00;;;;;;;14.90;2.63;;;2.50;99.90;;;;;;5019514;28;20060;-80
2023/03/28 00:41:29;;;;;;;18.73;4.55;;;2.60;99.90;;;;;;5027073;28;20035;-80
2023/03/28 00:43:56;;;;;;;12.65;2.13;;;2.60;99.90;;;;;;5023077;28;21860;-80
2023/03/28 00:46:28;;;;;;;10.90;2.20;;;2.70;99.90;;;;;;5011523;28;20034;-82
2023/03/28 00:49:20;;;;;;;11.02;1.83;;;2.70;99.90;;;;;;5019532;28;20260;-81
2023/03/28 00:52:02;;;;;;;13.43;2.00;;;2.70;99.90;;;;;;5014708;28;20049;-81
2023/03/28 00:54:33;;;;;;;16.20;2.30;;;2.70;99.90;;;;;;5013873;28;20108;-81
2023/03/28 00:57:01;;;;;;;12.93;1.83;;;2.70;99.90;;;;;;5006814;28;20546;-80
2023/03/28 00:59:31;;;;;;;13.73;2.13;;;2.70;99.90;;;;;;5018783;28;20053;-80
2023/03/28 01:01:57;;;;;;;9.15;1.60;;;2.70;99.90;;;;;;5011709;28;20045;-80
2023/03/28 01:04:29;;;;;;;12.15;2.60;;;2.70;99.90;;;;;;5018849;28;20072;-81
2023/03/28 01:06:57;;;;;;;9.60;1.95;;;2.60;99.90;;;;;;5017478;28;20038;-81
2023/03/28 01:09:23;;;;;;;9.15;1.73;;;2.60;99.90;;;;;;5042830;28;20107;-81
2023/03/28 01:11:51;;;;;;;11.07;3.00;;;2.50;99.90;;;;;;5021755;28;20106;-81
2023/03/28 01:14:21;;;;;;;12.95;2.20;;;2.50;99.90;;;;;;5017198;28;20049;-81
2023/03/28 01:16:48;;;;;;;12.73;2.00;;;2.50;99.90;;;;;;5024237;28;20042;-80
2023/03/28 01:19:43;;;;;;;20.17;2.70;;;2.50;99.90;;;;;;5010539;28;20059;-80
2023/03/28 01:22:19;;;;;;;15.15;2.25;;;2.40;99.90;;;;;;5014375;28;20048;-80
2023/03/28 01:25:23;;;;;;;11.75;2.20;;;2.40;99.90;;;;;;5031635;28;20412;-81
2023/03/28 01:28:02;;;;;;;13.50;2.42;;;2.30;99.90;;;;;;5017357;28;20049;-80
2023/03/28 01:31:01;;;;;;;12.68;2.22;;;2.30;99.90;;;;;;5016567;28;20378;-80
2023/03/28 01:33:39;;;;;;;14.68;2.30;;;2.30;99.90;;;;;;5004131;28;20137;-79
2023/03/28 01:36:28;;;;;;;12.90;2.45;;;2.20;99.90;;;;;;5019667;28;20130;-80
2023/03/28 01:38:58;;;;;;;10.77;2.03;;;2.20;99.90;;;;;;5021215;28;20124;-81
2023/03/28 01:41:45;;;;;;;12.75;1.98;;;2.20;99.90;;;;;;5028879;28;20037;-80
2023/03/28 01:44:17;;;;;;;13.63;2.47;;;2.20;99.90;;;;;;5027066;28;20042;-80
2023/03/28 01:46:54;;;;;;;12.85;2.25;;;2.20;99.90;;;;;;5017778;28;20504;-80
2023/03/28 01:50:02;;;;;;;16.38;2.40;;;2.20;99.90;;;;;;5018108;28;20084;-80
2023/03/28 01:52:50;;;;;;;21.27;3.03;;;2.10;99.90;;;;;;5043832;28;20136;-81
2023/03/28 01:55:29;;;;;;;14.18;2.38;;;2.10;99.90;;;;;;5006087;28;20079;-82
2023/03/28 01:58:17;;;;;;;14.40;2.22;;;2.10;99.90;;;;;;5036675;28;20049;-81
2023/03/28 02:00:47;;;;;;;17.48;2.25;;;2.10;99.90;;;;;;5030066;28;20052;-81
2023/03/28 02:03:32;;;;;;;14.02;2.13;;;2.10;99.90;;;;;;5010186;28;20044;-80
2023/03/28 02:06:01;;;;;;;12.10;1.98;;;2.10;99.90;;;;;;5022322;28;20133;-80
2023/03/28 02:08:31;;;;;;;11.65;1.98;;;2.00;99.90;;;;;;5010813;28;20041;-80
2023/03/28 02:10:58;;;;;;;12.40;2.97;;;2.00;99.90;;;;;;5023652;28;20046;-80
2023/03/28 02:13:29;;;;;;;13.25;2.47;;;1.90;99.90;;;;;;5013572;28;20081;-80
2023/03/28 02:15:59;;;;;;;12.45;2.70;;;1.90;99.90;;;;;;5013604;28;20046;-80
2023/03/28 02:18:31;;;;;;;16.98;2.80;;;1.90;99.90;;;;;;5017843;28;20563;-81
2023/03/28 02:21:02;;;;;;;19.27;2.63;;;1.90;99.90;;;;;;5022361;28;20049;-81
2023/03/28 02:23:42;;;;;;;12.90;2.03;;;1.80;99.90;;;;;;5017971;28;20038;-81
2023/03/28 02:26:09;;;;;;;25.42;3.22;;;1.80;99.90;;;;;;5018922;28;20053;-80
2023/03/28 02:28:36;;;;;;;12.05;2.42;;;1.80;99.90;;;;;;5025213;28;20044;-80
2023/03/28 02:31:04;;;;;;;13.93;1.92;;;1.80;99.90;;;;;;5026542;28;20042;-79
2023/03/28 02:33:40;;;;;;;23.15;3.97;;;1.80;99.90;;;;;;5018580;28;20575;-80
2023/03/28 02:36:30;;;;;;;9.73;2.33;;;1.80;99.90;;;;;;5014369;28;20498;-81
2023/03/28 02:39:19;;;;;;;15.05;2.40;;;1.80;99.90;;;;;;5021171;28;20057;-82
2023/03/28 02:42:00;;;;;;;6.57;2.03;;;1.80;99.90;;;;;;5025086;28;20436;-82
2023/03/28 02:44:45;;;;;;;16.75;2.20;;;1.70;99.90;;;;;;4995218;28;20137;-82
2023/03/28 02:47:17;;;;;;;18.05;2.45;;;1.70;99.90;;;;;;5005065;28;20068;-81
2023/03/28 02:50:07;;;;;;;14.13;2.30;;;1.70;99.90;;;;;;5009436;28;20073;-81
2023/03/28 02:53:11;;;;;;;19.27;3.25;;;1.70;99.90;;;;;;5010245;28;20045;-80
2023/03/28 02:55:55;;;;;;;13.25;2.15;;;1.60;99.90;;;;;;5005634;28;20305;-80
2023/03/28 02:58:33;;;;;;;12.90;2.13;;;1.50;99.90;;;;;;5023802;28;20049;-81
2023/03/28 03:01:01;;;;;;;13.77;3.63;;;1.50;99.90;;;;;;5022123;28;20034;-81
2023/03/28 03:03:27;;;;;;;10.52;2.83;;;1.60;99.90;;;;;;5008960;28;20049;-81
2023/03/28 03:05:53;;;;;;;21.05;3.30;;;1.50;99.90;;;;;;5003284;28;20140;-81
2023/03/28 03:08:19;;;;;;;16.90;2.60;;;1.50;99.90;;;;;;5024860;28;20057;-81
2023/03/28 03:10:45;;;;;;;15.25;2.10;;;1.60;99.90;;;;;;5019682;28;20515;-80
2023/03/28 03:13:11;;;;;;;14.27;2.83;;;1.50;99.90;;;;;;5021453;28;20050;-79
2023/03/28 03:15:37;;;;;;;14.60;2.33;;;1.50;99.90;;;;;;5013119;28;20128;-82
2023/03/28 03:18:03;;;;;;;17.90;3.03;;;1.50;99.90;;;;;;5025904;28;20035;-81
2023/03/28 03:20:32;;;;;;;16.23;3.38;;;1.50;99.90;;;;;;5015094;28;20072;-80
2023/03/28 03:23:02;;;;;;;15.07;3.08;;;1.50;99.90;;;;;;5015005;28;20366;-80
2023/03/28 03:25:30;;;;;;;14.40;2.60;;;1.50;99.90;;;;;;5016529;28;20107;-80
2023/03/28 03:27:55;;;;;;;12.43;2.60;;;1.50;99.90;;;;;;5024462;28;20038;-80
2023/03/28 03:30:21;;;;;;;17.98;2.13;;;1.50;99.90;;;;;;5002491;28;20650;-81
2023/03/28 03:32:47;;;;;;;11.00;2.30;;;1.50;99.90;;;;;;5011108;28;20038;-82
2023/03/28 03:35:13;;;;;;;17.63;2.97;;;1.50;99.90;;;;;;5019355;28;20065;-81
2023/03/28 03:37:38;;;;;;;28.73;4.00;;;1.50;99.90;;;;;;5002554;28;20076;-81
2023/03/28 03:40:05;;;;;;;15.40;2.35;;;1.50;99.90;;;;;;5012784;28;20081;-81
2023/03/28 03:42:31;;;;;;;12.98;3.20;;;1.50;99.90;;;;;;5021731;28;20057;-81
2023/03/28 03:44:57;;;;;;;10.70;2.10;;;1.50;99.90;;;;;;5019400;28;20104;-81
2023/03/28 03:47:25;;;;;;;9.43;2.97;;;1.50;99.90;;;;;;5023694;28;20451;-80
2023/03/28 03:49:51;;;;;;;13.10;2.75;;;1.60;99.90;;;;;;5013506;28;20990;-80
2023/03/28 03:52:17;;;;;;;19.52;3.33;;;1.60;99.90;;;;;;5012772;28;20045;-80
2023/03/28 03:54:42;;;;;;;16.90;2.85;;;1.70;99.90;;;;;;5020562;28;20129;-81
2023/03/28 03:57:08;;;;;;;12.40;2.08;;;1.70;99.90;;;;;;5001402;28;20060;-80
2023/03/28 03:59:34;;;;;;;15.98;2.60;;;1.70;99.90;;;;;;5017014;28;20124;-80
2023/03/28 04:02:00;;;;;;;14.63;2.97;;;1.70;99.90;;;;;;5011423;28;20069;-81
2023/03/28 04:04:27;;;;;;;18.35;2.38;;;1.80;99.90;;;;;;5020488;28;20493;-81
2023/03/28 04:06:56;;;;;;;10.70;2.15;;;1.80;99.90;;;;;;5013741;28;20091;-81
2023/03/28 04:09:25;;;;;;;17.10;2.13;;;1.80;99.90;;;;;;5013799;28;20072;-81
2023/03/28 04:11:54;;;;;;;8.75;2.58;;;1.80;99.90;;;;;;5022245;28;20056;-81
2023/03/28 04:14:23;;;;;;;12.13;2.47;;;1.80;99.90;;;;;;5008036;28;20053;-82
2023/03/28 04:16:49;;;;;;;15.55;2.33;;;1.80;99.90;;;;;;5024220;28;20123;-82
2023/03/28 04:19:16;;;;;;;15.65;2.90;;;1.80;99.90;;;;;;5015660;28;20287;-81
2023/03/28 04:21:46;;;;;;;10.50;2.15;;;1.80;99.90;;;;;;5031786;28;20037;-81
2023/03/28 04:24:15;;;;;;;10.65;2.00;;;1.90;99.90;;;;;;5027489;28;20037;-82
2023/03/28 04:26:42;;;;;;;15.15;2.60;;;1.80;99.90;;;;;;5007768;28;20039;-82
2023/03/28 04:29:09;;;;;;;13.88;2.97;;;1.80;99.90;;;;;;4991831;28;20046;-80
2023/03/28 04:31:37;;;;;;;14.95;2.63;;;1.80;99.90;;;;;;4971328;28;20399;-82
2023/03/28 04:34:07;;;;;;;15.20;3.35;;;1.80;99.90;;;;;;4988738;28;20077;-82
2023/03/28 04:36:33;;;;;;;12.85;1.83;;;1.70;99.90;;;;;;4990030;28;20046;-81
2023/03/28 04:39:01;;;;;;;16.17;2.60;;;1.70;99.90;;;;;;4993548;28;20395;-82
2023/03/28 04:41:27;;;;;;;12.13;2.22;;;1.70;99.90;;;;;;5025329;28;20048;-83
2023/03/28 04:43:53;;;;;;;9.07;1.75;;;1.70;99.90;;;;;;5013109;28;20045;-82
2023/03/28 04:46:19;;;;;;;13.52;2.30;;;1.70;99.90;;;;;;5012520;28;20045;-82
2023/03/28 04:48:45;;;;;;;14.35;2.45;;;1.80;99.90;;;;;;5002662;28;20050;-80
2023/03/28 04:51:11;;;;;;;15.35;3.47;;;1.80;99.90;;;;;;5041852;28;20132;-79
2023/03/28 04:53:37;;;;;;;13.30;2.38;;;1.80;99.90;;;;;;5022645;28;20594;-80
2023/03/28 04:56:04;;;;;;;18.80;2.22;;;1.80;99.90;;;;;;5040294;28;20041;-80
2023/03/28 04:58:31;;;;;;;11.60;1.95;;;1.80;99.90;;;;;;5011139;28;20077;-81
2023/03/28 05:00:56;;;;;;;14.00;2.05;;;1.90;99.90;;;;;;5014624;28;20049;-82
2023/03/28 05:03:23;;;;;;;8.90;2.20;;;1.80;99.90;;;;;;5013973;28;20041;-80
2023/03/28 05:05:56;;;;;;;12.05;2.40;;;1.70;99.90;;;;;;5011476;28;20045;-80
2023/03/28 05:08:25;;;;;;;8.55;2.00;;;1.70;99.90;;;;;;5007739;28;20497;-82
2023/03/28 05:10:56;;;;;;;12.57;2.50;;;1.80;99.90;;;;;;5010029;28;21048;-80
2023/03/28 05:13:21;;;;;;;13.27;2.08;;;1.90;99.90;;;;;;5008037;28;20045;-81
2023/03/28 05:15:47;;;;;;;13.98;2.47;;;1.90;99.90;;;;;;5020735;28;20331;-80
2023/03/28 05:18:14;;;;;;;9.55;1.80;;;2.00;99.90;;;;;;4991916;28;20053;-79
2023/03/28 05:20:40;;;;;;;16.38;2.40;;;1.90;99.90;;;;;;5016393;28;20077;-79
2023/03/28 05:23:06;;;;;;;12.10;2.33;;;2.00;99.90;;;;;;5007919;28;21905;-79
2023/03/28 05:25:35;;;;;;;7.90;1.73;;;2.00;99.90;;;;;;5017551;28;20041;-75
2023/03/28 05:28:01;;;;;;;7.22;1.95;;;2.00;99.90;;;;;;4999589;28;20046;-76
2023/03/28 05:30:27;;;;;;;8.02;2.05;;;2.00;99.90;;;;;;5017733;28;20030;-77
2023/03/28 05:32:53;;;;;;;11.00;2.30;;;2.00;99.90;;;;;;5029945;28;20530;-76
2023/03/28 05:35:19;;;;;;;11.57;2.70;;;1.90;99.90;;;;;;5022719;28;20061;-76
2023/03/28 05:37:45;;;;;;;15.00;2.97;;;1.90;99.90;;;;;;5030189;28;20037;-77
2023/03/28 05:40:15;;;;;;;12.02;2.10;;;2.00;99.90;;;;;;5015875;28;20099;-76
2023/03/28 05:42:41;;;;;;;12.10;2.22;;;2.00;99.90;;;;;;5011655;28;20498;-75
2023/03/28 05:45:08;;;;;;;9.60;1.90;;;2.00;99.90;;;;;;5012091;28;20090;-79
2023/03/28 05:47:34;;;;;;;9.02;2.15;;;2.00;99.90;;;;;;5006333;28;20151;-79
2023/03/28 05:50:01;;;;;;;8.23;2.20;;;2.10;99.90;;;;;;5036692;28;20038;-84
2023/03/28 05:52:26;;;;;;;6.70;2.30;;;2.10;99.90;;;;;;5013333;28;20045;-90
2023/03/28 05:54:54;;;;;;;9.75;2.03;;;2.20;99.90;;;;;;5024801;28;20524;-87
2023/03/28 05:57:21;;;;;;;10.07;2.10;;;2.30;99.90;;;;;;5026622;28;20132;-87
2023/03/28 05:59:47;;;;;;;7.53;1.90;;;2.30;99.90;;;;;;5017753;28;20129;-86
2023/03/28 06:02:15;;;;;;;10.40;2.25;;;2.40;99.90;;;;;;5022195;28;20128;-85
2023/03/28 06:04:42;;;;;;;10.02;1.85;;;2.50;99.90;;;;;;5010341;28;20093;-83
2023/03/28 06:07:08;;;;;;;7.05;1.67;;;2.60;99.90;;;;;;5014867;28;20088;-82
2023/03/28 06:09:34;;;;;;;10.77;1.85;;;2.60;99.90;;;;;;5037337;28;20042;-83
2023/03/28 06:12:02;;;;;;;9.80;1.80;;;2.70;99.90;;;;;;5019685;28;20054;-83
2023/03/28 06:14:28;;;;;;;5.32;1.60;;;2.70;99.90;;;;;;5047267;28;20049;-84
2023/03/28 06:16:54;;;;;;;5.85;1.58;;;2.70;99.90;;;;;;5014290;28;20521;-83
2023/03/28 06:19:20;;;;;;;11.43;1.77;;;2.70;99.90;;;;;;5004195;28;20045;-82
2023/03/28 06:21:49;;;;;;;10.77;2.00;;;2.70;99.90;;;;;;5003878;28;20034;-83
2023/03/28 06:24:14;;;;;;;11.48;2.28;;;2.70;99.90;;;;;;5004158;28;20118;-84
2023/03/28 06:26:40;;;;;;;6.35;2.20;;;2.70;99.90;;;;;;4990609;28;20081;-85
2023/03/28 06:29:06;;;;;;;11.63;3.40;;;2.70;99.90;;;;;;4988885;28;20133;-83
2023/03/28 06:31:32;;;;;;;6.90;2.60;;;2.80;99.90;;;;;;5028400;28;20631;-83
2023/03/28 06:33:58;;;;;;;9.50;2.53;;;2.90;99.90;;;;;;4999512;28;20266;-81
2023/03/28 06:36:23;;;;;;;9.95;2.38;;;3.00;99.90;;;;;;4999135;28;20045;-82
2023/03/28 06:38:51;;;;;;;9.05;1.83;;;3.10;99.90;;;;;;5013603;28;20041;-82
2023/03/28 06:41:19;;;;;;;10.00;2.10;;;3.20;99.90;;;;;;5009316;28;20037;-81
2023/03/28 06:43:45;;;;;;;8.50;2.22;;;3.40;99.90;;;;;;5013520;28;20084;-81
2023/03/28 06:46:12;;;;;;;13.85;2.20;;;3.50;99.90;;;;;;5019361;28;20045;-82
2023/03/28 06:48:38;;;;;;;9.70;2.15;;;3.70;99.90;;;;;;5033095;28;20061;-82
2023/03/28 06:51:04;;;;;;;5.45;1.73;;;3.90;99.90;;;;;;4979814;28;20303;-82
2023/03/28 06:53:30;;;;;;;10.77;2.47;;;4.00;99.90;;;;;;4996703;28;20038;-81
2023/03/28 06:55:57;;;;;;;8.05;1.90;;;4.20;99.90;;;;;;5018697;28;20053;-82
2023/03/28 06:58:22;;;;;;;7.45;1.75;;;4.30;99.90;;;;;;5005157;28;20038;-82
2023/03/28 07:00:54;;;;;;;10.38;2.05;;;4.50;99.90;;;;;;5012351;28;20066;-81
2023/03/28 07:03:19;;;;;;;9.25;2.00;;;4.70;99.90;;;;;;5017080;28;20045;-81
2023/03/28 07:05:45;;;;;;;8.85;2.03;;;4.90;99.90;;;;;;5028337;28;20378;-81
2023/03/28 07:08:12;;;;;;;10.02;2.83;;;5.10;99.90;;;;;;5024532;28;20042;-82
2023/03/28 07:10:39;;;;;;;9.93;2.20;;;5.30;99.90;;;;;;5008997;28;20519;-84
2023/03/28 07:13:06;;;;;;;9.32;2.20;;;5.50;99.90;;;;;;5042535;28;20045;-85
2023/03/28 07:15:33;;;;;;;6.57;2.05;;;5.80;99.90;;;;;;5013829;28;20046;-85
2023/03/28 07:17:58;;;;;;;7.03;1.70;;;5.90;99.90;;;;;;5016917;28;20080;-84
2023/03/28 07:20:25;;;;;;;5.07;1.50;;;6.00;99.90;;;;;;5014640;28;20258;-85
2023/03/28 07:22:51;;;;;;;8.43;1.40;;;5.90;99.90;;;;;;5010023;28;20052;-82
2023/03/28 07:25:17;;;;;;;7.10;1.55;;;5.80;99.90;;;;;;5015879;28;20053;-82
2023/03/28 07:27:42;;;;;;;7.45;1.67;;;5.80;99.90;;;;;;5016587;28;20397;-77
2023/03/28 07:30:09;;;;;;;8.07;1.83;;;5.70;99.90;;;;;;5016324;28;20061;-81
2023/03/28 07:32:35;;;;;;;5.68;1.77;;;5.60;99.90;;;;;;5021408;28;20045;-82
2023/03/28 07:35:02;;;;;;;5.68;1.95;;;5.50;99.90;;;;;;5018710;28;21896;-83
2023/03/28 07:37:28;;;;;;;7.82;1.60;;;5.50;99.90;;;;;;5021437;28;20042;-81
2023/03/28 07:39:55;;;;;;;8.40;1.55;;;5.50;99.90;;;;;;5014577;28;20052;-82
2023/03/28 07:42:21;;;;;;;6.47;1.20;;;5.50;99.90;;;;;;5014569;28;20062;-81
2023/03/28 07:44:46;;;;;;;8.25;1.40;;;5.50;99.90;;;;;;5012260;28;20393;-82
2023/03/28 07:47:12;;;;;;;6.00;1.30;;;5.50;99.90;;;;;;5021045;28;20053;-81
2023/03/28 07:49:38;;;;;;;6.72;1.30;;;5.60;99.90;;;;;;5025053;28;20049;-82
2023/03/28 07:52:04;;;;;;;8.52;1.42;;;5.60;99.90;;;;;;5020891;28;20191;-82
2023/03/28 07:54:32;;;;;;;7.97;1.23;;;5.70;99.90;;;;;;5030733;28;20057;-82
2023/03/28 07:56:58;;;;;;;5.00;0.95;;;5.70;99.90;;;;;;5026008;28;20037;-82
2023/03/28 07:59:24;;;;;;;7.10;1.50;;;5.80;99.90;;;;;;5016698;28;20037;-80
2023/03/28 08:01:51;;;;;;;10.38;1.60;;;5.90;99.90;;;;;;5014134;28;20508;-81
2023/03/28 08:04:16;;;;;;;5.38;1.05;;;6.10;99.90;;;;;;5043542;28;20111;-80
2023/03/28 08:06:42;;;;;;;3.00;1.20;;;6.20;99.90;;;;;;5042604;28;20076;-82
2023/03/28 08:09:14;;;;;;;5.28;1.23;;;6.20;99.90;;;;;;5029069;28;20050;-81
2023/03/28 08:11:41;;;;;;;5.10;1.23;;;6.30;99.90;;;;;;5011828;28;20037;-81
2023/03/28 08:14:09;;;;;;;6.43;1.27;;;6.40;99.90;;;;;;5008479;28;20057;-80
2023/03/28 08:16:35;;;;;;;3.97;1.40;;;6.60;99.90;;;;;;5058561;28;20037;-82
2023/03/28 08:19:02;;;;;;;10.30;2.67;;;6.70;99.90;;;;;;5032010;28;20420;-78
2023/03/28 08:21:30;;;;;;;7.18;2.35;;;6.80;99.90;;;;;;5021880;28;20033;-79
2023/03/28 08:23:57;;;;;;;4.40;1.08;;;6.90;99.90;;;;;;5013240;28;20053;-81
2023/03/28 08:26:22;;;;;;;4.00;1.08;;;6.90;99.90;;;;;;5023911;28;20188;-80
2023/03/28 08:28:48;;;;;;;4.60;1.00;;;7.00;99.90;;;;;;5047862;28;20120;-77
2023/03/28 08:31:15;;;;;;;9.07;1.90;;;7.00;99.90;;;;;;5011157;28;20064;-75
2023/03/28 08:33:43;;;;;;;9.68;1.48;;;7.00;99.90;;;;;;5016017;28;20664;-79
2023/03/28 08:36:13;;;;;;;5.07;1.15;;;7.00;99.90;;;;;;5022271;28;20493;-79
2023/03/28 08:38:40;;;;;;;6.43;1.25;;;7.10;99.90;;;;;;5009808;28;20049;-78
2023/03/28 08:41:23;;;;;;;6.32;0.90;;;7.10;99.90;;;;;;5013017;28;20042;-80
2023/03/28 08:44:17;;;;;;;6.00;1.88;;;7.10;99.90;;;;;;5011844;28;20042;-80
2023/03/28 08:46:44;;;;;;;5.55;1.00;;;7.20;99.90;;;;;;5006125;28;20077;-80
2023/03/28 08:49:16;;;;;;;6.25;1.27;;;7.40;99.90;;;;;;5018521;28;20122;-79
2023/03/28 08:51:59;;;;;;;4.63;0.90;;;7.60;99.90;;;;;;5018217;28;20120;-79
2023/03/28 08:54:47;;;;;;;5.90;0.93;;;7.70;99.90;;;;;;5012329;28;20088;-79
2023/03/28 08:57:19;;;;;;;6.88;1.10;;;7.80;99.90;;;;;;4994272;28;20498;-79
2023/03/28 09:00:13;;;;;;;4.72;1.45;;;7.90;99.90;;;;;;5009531;28;20049;-79
2023/03/28 09:02:40;;;;;;;4.13;1.65;;;7.90;99.90;;;;;;5051551;28;20061;-79
2023/03/28 09:05:12;;;;;;;5.70;1.52;;;7.90;99.90;;;;;;5015662;28;20262;-79
2023/03/28 09:07:59;;;;;;;6.85;1.40;;;7.80;99.90;;;;;;5030128;28;20457;-80
2023/03/28 09:10:50;;;;;;;6.28;1.30;;;7.90;99.90;;;;;;5004344;28;20034;-79
2023/03/28 09:13:47;;;;;;;3.33;1.30;;;7.90;99.90;;;;;;5012903;28;20049;-80
2023/03/28 09:16:24;;;;;;;4.28;1.30;;;7.80;99.90;;;;;;5021394;28;20038;-80
2023/03/28 09:19:09;;;;;;;4.18;1.67;;;7.80;99.90;;;;;;5028865;28;20037;-80
2023/03/28 09:21:53;;;;;;;6.20;1.70;;;7.70;99.90;;;;;;5028038;28;20042;-80
2023/03/28 09:24:54;;;;;;;3.90;1.73;;;7.70;99.90;;;;;;5037711;28;20042;-81
2023/03/28 09:27:47;;;;;;;8.13;1.60;;;7.70;99.90;;;;;;5008149;28;20443;-80
2023/03/28 09:30:18;;;;;;;8.52;2.38;;;7.90;99.90;;;;;;5009693;28;20041;-80
2023/03/28 09:32:44;;;;;;;5.97;1.60;;;7.90;99.90;;;;;;5042680;28;20050;-80
2023/03/28 09:35:19;;;;;;;5.05;1.40;;;8.00;99.90;;;;;;5042016;28;20053;-79
2023/03/28 09:37:54;;;;;;;6.45;1.65;;;8.00;99.90;;;;;;5010937;28;20097;-80
2023/03/28 09:40:29;;;;;;;6.20;2.08;;;7.90;99.90;;;;;;5027915;28;20468;-81
2023/03/28 09:43:33;;;;;;;5.32;1.85;;;8.00;99.90;;;;;;5043795;28;20120;-80
2023/03/28 09:46:01;;;;;;;6.15;1.63;;;8.00;99.90;;;;;;5010248;28;20049;-80
2023/03/28 09:48:30;;;;;;;6.80;1.50;;;8.00;99.90;;;;;;5008948;28;20069;-80
2023/03/28 09:51:00;;;;;;;5.38;1.55;;;8.00;99.90;;;;;;5002224;28;20045;-80
2023/03/28 09:53:36;;;;;;;5.70;1.65;;;8.10;99.90;;;;;;5012871;28;20041;-79
2023/03/28 09:56:07;;;;;;;7.60;1.40;;;8.10;99.90;;;;;;5010955;28;20037;-78
2023/03/28 09:59:04;;;;;;;8.63;1.73;;;8.10;99.90;;;;;;5014372;28;20048;-80
2023/03/28 10:01:35;;;;;;;5.45;1.80;;;8.10;99.90;;;;;;5013540;28;20520;-79
2023/03/28 10:04:08;;;;;;;5.75;1.90;;;8.20;99.90;;;;;;5013418;28;20461;-78
2023/03/28 10:06:36;;;;;;;6.20;1.85;;;8.20;99.90;;;;;;5026993;28;20036;-79
2023/03/28 10:09:14;;;;;;;7.82;1.95;;;8.30;99.90;;;;;;5025590;28;20041;-78
2023/03/28 10:11:53;;;;;;;14.18;2.08;;;8.20;99.90;;;;;;5027730;28;20110;-79
2023/03/28 10:14:36;;;;;;;5.45;1.85;;;8.20;99.90;;;;;;5023476;28;20080;-79
2023/03/28 10:17:26;;;;;;;6.25;2.08;;;8.10;99.90;;;;;;5013618;28;20049;-78
2023/03/28 10:19:57;;;;;;;7.72;1.77;;;8.10;99.90;;;;;;5021439;28;20042;-79
2023/03/28 10:22:44;;;;;;;6.30;2.00;;;8.20;99.90;;;;;;5009192;28;20058;-79
2023/03/28 10:26:06;;;;;;;6.50;2.35;;;8.30;99.90;;;;;;5008896;28;20177;-79
2023/03/28 10:28:36;;;;;;;7.10;2.10;;;8.60;99.90;;;;;;5014115;28;20046;-79
2023/03/28 10:31:03;;;;;;;9.20;2.35;;;8.80;99.90;;;;;;5017118;28;20037;-79
2023/03/28 10:33:41;;;;;;;8.48;2.97;;;9.00;99.90;;;;;;5015175;28;20042;-80
2023/03/28 10:36:11;;;;;;;8.18;2.42;;;9.10;99.90;;;;;;5020690;28;20099;-80
2023/03/28 10:38:44;;;;;;;9.98;2.42;;;9.10;99.90;;;;;;5041627;28;20095;-80
2023/03/28 10:41:27;;;;;;;7.72;2.42;;;9.00;99.90;;;;;;5014845;28;20050;-79
2023/03/28 10:43:54;;;;;;;6.07;2.67;;;8.80;99.90;;;;;;5038387;28;20045;-80
2023/03/28 10:46:25;;;;;;;10.55;3.08;;;8.70;99.90;;;;;;5030495;28;20050;-78
2023/03/28 10:48:56;;;;;;;9.73;2.67;;;8.70;99.90;;;;;;5021850;28;20477;-78
2023/03/28 10:51:24;;;;;;;5.00;2.78;;;8.70;99.90;;;;;;5021168;28;20081;-79
2023/03/28 10:53:56;;;;;;;7.50;2.75;;;8.70;99.90;;;;;;5052253;28;20620;-79
2023/03/28 10:56:40;;;;;;;7.13;2.63;;;8.80;99.90;;;;;;5011965;28;20050;-78
2023/03/28 10:59:17;;;;;;;7.15;2.72;;;8.80;99.90;;;;;;5041855;28;20478;-77
2023/03/28 11:02:01;;;;;;;10.93;2.80;;;8.90;99.90;;;;;;5030010;28;20498;-78
2023/03/28 11:04:49;;;;;;;6.47;2.80;;;9.00;99.90;;;;;;5005940;28;20065;-78
2023/03/28 11:07:41;;;;;;;11.48;2.65;;;9.00;99.90;;;;;;5014264;28;20041;-77
2023/03/28 11:10:34;;;;;;;7.57;2.50;;;9.10;99.90;;;;;;5023122;28;20045;-78
2023/03/28 11:13:43;;;;;;;6.72;2.75;;;9.00;99.90;;;;;;5019407;28;20046;-78
2023/03/28 11:16:34;;;;;;;5.72;2.40;;;9.10;99.90;;;;;;5025354;28;20173;-78
2023/03/28 11:19:11;;;;;;;10.32;2.95;;;9.10;99.90;;;;;;5014699;28;20052;-79
2023/03/28 11:21:52;;;;;;;6.80;2.33;;;9.20;99.90;;;;;;5001690;28;20041;-78
2023/03/28 11:24:46;;;;;;;8.25;2.75;;;9.20;99.90;;;;;;5008289;28;20192;-78
2023/03/28 11:27:20;;;;;;;6.13;2.35;;;9.20;99.90;;;;;;5016021;28;20405;-78
2023/03/28 11:29:50;;;;;;;7.50;2.58;;;9.30;99.90;;;;;;5020666;28;20052;-78
2023/03/28 11:32:42;;;;;;;8.73;2.90;;;9.30;99.90;;;;;;5042921;28;20045;-79
2023/03/28 11:35:30;;;;;;;6.80;2.60;;;9.40;99.90;;;;;;5011877;28;20041;-79
2023/03/28 11:38:23;;;;;;;5.22;2.25;;;9.50;99.90;;;;;;5019064;28;20053;-79
2023/03/28 11:40:55;;;;;;;8.98;2.97;;;9.50;99.90;;;;;;5020330;28;20053;-78
2023/03/28 11:43:40;;;;;;;8.50;2.90;;;9.50;99.90;;;;;;5025942;28;20145;-77
2023/03/28 11:46:31;;;;;;;7.85;3.25;;;9.60;99.90;;;;;;5012443;28;20045;-78
2023/03/28 11:49:21;;;;;;;10.63;2.70;;;9.70;99.90;;;;;;5033441;28;20059;-79
2023/03/28 11:51:55;;;;;;;12.80;2.72;;;9.80;99.90;;;;;;5035056;28;20473;-78
2023/03/28 11:54:36;;;;;;;9.30;2.33;;;9.80;99.90;;;;;;5020479;28;20133;-79
2023/03/28 11:57:28;;;;;;;8.20;2.78;;;9.80;99.90;;;;;;5010379;28;20057;-76
2023/03/28 12:00:03;;;;;;;10.18;3.05;;;9.80;99.90;;;;;;5012460;28;20045;-78
2023/03/28 12:02:29;;;;;;;7.65;3.28;;;9.70;99.90;;;;;;5007329;28;20100;-78
2023/03/28 12:05:01;;;;;;;9.60;3.10;;;9.70;99.90;;;;;;5003519;28;20046;-78
2023/03/28 12:07:39;;;;;;;6.25;2.83;;;9.70;99.90;;;;;;5008748;28;20128;-78
2023/03/28 12:10:13;;;;;;;6.57;2.72;;;9.80;99.90;;;;;;5015349;28;20046;-78
2023/03/28 12:13:11;;;;;;;8.80;2.28;;;9.80;99.90;;;;;;5047191;28;20060;-78
2023/03/28 12:15:43;;;;;;;10.73;3.22;;;9.80;99.90;;;;;;5024861;28;20053;-79
2023/03/28 12:18:31;;;;;;;9.98;2.70;;;9.80;99.90;;;;;;5022537;28;20057;-79
2023/03/28 12:21:09;;;;;;;5.97;2.47;;;9.80;99.90;;;;;;5007222;28;20048;-80
2023/03/28 12:23:41;;;;;;;7.20;3.05;;;9.70;99.90;;;;;;5031475;28;20037;-80
2023/03/28 12:26:22;;;;;;;5.53;2.70;;;9.70;99.90;;;;;;5016150;28;20138;-79
2023/03/28 12:28:52;;;;;;;9.07;2.60;;;9.60;99.90;;;;;;5004932;28;20116;-78
2023/03/28 12:31:29;;;;;;;9.60;2.17;;;9.60;99.90;;;;;;5027283;28;20049;-79
2023/03/28 12:34:26;;;;;;;7.15;2.17;;;9.70;99.90;;;;;;5016963;28;20053;-77
2023/03/28 12:37:03;;;;;;;6.00;2.50;;;9.60;99.90;;;;;;5050232;28;20095;-79
2023/03/28 12:39:52;;;;;;;5.70;2.28;;;9.70;99.90;;;;;;5009048;28;20485;-78
2023/03/28 12:42:20;;;;;;;7.50;2.83;;;9.70;99.90;;;;;;5049047;28;20057;-79
2023/03/28 12:44:51;;;;;;;5.82;2.50;;;9.70;99.90;;;;;;5019460;28;20060;-78
2023/03/28 12:47:24;;;;;;;9.07;2.88;;;9.70;99.90;;;;;;5020840;28;20058;-79
2023/03/28 12:50:13;;;;;;;8.15;3.38;;;9.80;99.90;;;;;;5016812;28;20176;-79
2023/03/28 12:52:42;;;;;;;11.90;4.00;;;9.80;99.90;;;;;;5021790;28;20129;-78
2023/03/28 12:55:23;;;;;;;10.68;3.53;;;9.70;99.90;;;;;;5027253;28;20128;-77
2023/03/28 12:57:50;;;;;;;9.63;3.42;;;9.60;99.90;;;;;;5018771;28;20071;-78
2023/03/28 13:00:28;;;;;;;8.57;3.55;;;9.60;99.90;;;;;;5006325;28;20042;-78
2023/03/28 13:03:34;;;;;;;11.88;3.22;;;9.60;99.90;;;;;;5012455;28;20093;-78
2023/03/28 13:06:24;;;;;;;9.02;3.00;;;9.50;99.90;;;;;;5019768;28;20044;-78
2023/03/28 13:09:23;;;;;;;7.30;3.50;;;9.50;99.90;;;;;;5049487;28;20122;-78
2023/03/28 13:11:58;;;;;;;5.97;3.38;;;9.50;99.90;;;;;;5038843;28;20576;-78
2023/03/28 13:14:37;;;;;;;7.90;3.13;;;9.40;99.90;;;;;;5025843;28;20260;-78
2023/03/28 13:17:26;;;;;;;7.32;2.85;;;9.40;99.90;;;;;;5032267;28;20116;-77
2023/03/28 13:20:06;;;;;;;8.50;3.35;;;9.40;99.90;;;;;;5019088;28;20034;-78
2023/03/28 13:22:49;;;;;;;5.28;3.05;;;9.50;99.90;;;;;;5024733;28;20038;-78
2023/03/28 13:25:19;;;;;;;;;;;9.50;99.90;;;;;;5021274;28;20151;-77